sensor_id;sensor_type;location;lat;lon;timestamp;P1;durP1;ratioP1;P2;durP2;ratioP2
69434;SDS011;56625;54.322;18.582;2022-08-21T00:02:03;12.90;;;8.20;;
69434;SDS011;56625;54.322;18.582;2022-08-21T00:04:40;10.90;;;7.40;;
69434;SDS011;56625;54.322;18.582;2022-08-21T00:07:24;11.40;;;7.10;;
69434;SDS011;56625;54.322;18.582;2022-08-21T00:09:53;11.70;;;7.10;;
69434;SDS011;56625;54.322;18.582;2022-08-21T00:12:21;10.20;;;6.30;;
69434;SDS011;56625;54.322;18.582;2022-08-21T00:14:49;9.50;;;6.30;;
69434;SDS011;56625;54.322;18.582;2022-08-21T00:17:23;11.50;;;6.70;;
69434;SDS011;56625;54.322;18.582;2022-08-21T00:19:51;9.90;;;6.30;;
69434;SDS011;56625;54.322;18.582;2022-08-21T00:22:19;9.80;;;6.50;;
69434;SDS011;56625;54.322;18.582;2022-08-21T00:24:50;10.60;;;6.10;;
69434;SDS011;56625;54.322;18.582;2022-08-21T00:27:18;9.90;;;6.50;;
69434;SDS011;56625;54.322;18.582;2022-08-21T00:29:46;9.70;;;5.90;;
69434;SDS011;56625;54.322;18.582;2022-08-21T00:32:19;10.00;;;5.90;;
69434;SDS011;56625;54.322;18.582;2022-08-21T00:34:50;8.90;;;5.10;;
69434;SDS011;56625;54.322;18.582;2022-08-21T00:37:19;9.10;;;5.80;;
69434;SDS011;56625;54.322;18.582;2022-08-21T00:39:47;10.20;;;5.90;;
69434;SDS011;56625;54.322;18.582;2022-08-21T00:42:16;9.80;;;5.90;;
69434;SDS011;56625;54.322;18.582;2022-08-21T00:44:47;10.60;;;6.00;;
69434;SDS011;56625;54.322;18.582;2022-08-21T00:47:17;10.50;;;6.30;;
69434;SDS011;56625;54.322;18.582;2022-08-21T00:49:46;10.60;;;6.10;;
69434;SDS011;56625;54.322;18.582;2022-08-21T00:52:21;11.20;;;6.10;;
69434;SDS011;56625;54.322;18.582;2022-08-21T00:54:53;10.00;;;6.20;;
69434;SDS011;56625;54.322;18.582;2022-08-21T00:57:29;9.70;;;6.00;;
69434;SDS011;56625;54.322;18.582;2022-08-21T01:00:07;10.00;;;5.90;;
69434;SDS011;56625;54.322;18.582;2022-08-21T01:02:37;10.20;;;6.60;;
69434;SDS011;56625;54.322;18.582;2022-08-21T01:05:06;12.00;;;6.70;;
69434;SDS011;56625;54.322;18.582;2022-08-21T01:07:34;9.60;;;5.70;;
69434;SDS011;56625;54.322;18.582;2022-08-21T01:10:05;8.70;;;4.90;;
69434;SDS011;56625;54.322;18.582;2022-08-21T01:12:34;9.90;;;5.70;;
69434;SDS011;56625;54.322;18.582;2022-08-21T01:15:05;8.80;;;5.50;;
69434;SDS011;56625;54.322;18.582;2022-08-21T01:17:35;8.60;;;5.40;;
69434;SDS011;56625;54.322;18.582;2022-08-21T01:20:08;9.50;;;5.40;;
69434;SDS011;56625;54.322;18.582;2022-08-21T01:22:38;8.90;;;5.30;;
69434;SDS011;56625;54.322;18.582;2022-08-21T01:25:07;9.90;;;5.80;;
69434;SDS011;56625;54.322;18.582;2022-08-21T01:27:39;8.80;;;5.50;;
69434;SDS011;56625;54.322;18.582;2022-08-21T01:30:11;10.70;;;5.90;;
69434;SDS011;56625;54.322;18.582;2022-08-21T01:32:52;16.10;;;11.60;;
69434;SDS011;56625;54.322;18.582;2022-08-21T01:35:21;22.80;;;15.70;;
69434;SDS011;56625;54.322;18.582;2022-08-21T01:37:49;24.10;;;17.40;;
69434;SDS011;56625;54.322;18.582;2022-08-21T01:40:18;17.90;;;13.20;;
69434;SDS011;56625;54.322;18.582;2022-08-21T01:42:46;16.40;;;10.10;;
69434;SDS011;56625;54.322;18.582;2022-08-21T01:45:15;14.80;;;8.90;;
69434;SDS011;56625;54.322;18.582;2022-08-21T01:47:44;10.10;;;6.40;;
69434;SDS011;56625;54.322;18.582;2022-08-21T01:50:15;11.30;;;6.50;;
69434;SDS011;56625;54.322;18.582;2022-08-21T01:52:44;8.90;;;5.20;;
69434;SDS011;56625;54.322;18.582;2022-08-21T01:55:14;9.70;;;5.20;;
69434;SDS011;56625;54.322;18.582;2022-08-21T01:57:44;8.10;;;4.80;;
69434;SDS011;56625;54.322;18.582;2022-08-21T02:00:16;8.80;;;4.80;;
69434;SDS011;56625;54.322;18.582;2022-08-21T02:02:46;8.50;;;4.60;;
69434;SDS011;56625;54.322;18.582;2022-08-21T02:05:14;7.80;;;4.40;;
69434;SDS011;56625;54.322;18.582;2022-08-21T02:07:46;7.80;;;4.10;;
69434;SDS011;56625;54.322;18.582;2022-08-21T02:10:20;7.40;;;4.30;;
69434;SDS011;56625;54.322;18.582;2022-08-21T02:12:51;8.50;;;4.50;;
69434;SDS011;56625;54.322;18.582;2022-08-21T02:15:19;6.80;;;3.90;;
69434;SDS011;56625;54.322;18.582;2022-08-21T02:17:53;7.80;;;3.90;;
69434;SDS011;56625;54.322;18.582;2022-08-21T02:20:32;7.10;;;3.90;;
69434;SDS011;56625;54.322;18.582;2022-08-21T02:23:05;7.10;;;4.00;;
69434;SDS011;56625;54.322;18.582;2022-08-21T02:25:36;7.50;;;4.00;;
69434;SDS011;56625;54.322;18.582;2022-08-21T02:28:10;9.20;;;4.60;;
69434;SDS011;56625;54.322;18.582;2022-08-21T02:30:44;7.60;;;4.00;;
69434;SDS011;56625;54.322;18.582;2022-08-21T02:33:14;7.60;;;4.30;;
69434;SDS011;56625;54.322;18.582;2022-08-21T02:35:45;7.30;;;4.30;;
69434;SDS011;56625;54.322;18.582;2022-08-21T02:38:18;8.80;;;4.40;;
69434;SDS011;56625;54.322;18.582;2022-08-21T02:40:50;7.90;;;5.00;;
69434;SDS011;56625;54.322;18.582;2022-08-21T02:43:20;8.00;;;4.70;;
69434;SDS011;56625;54.322;18.582;2022-08-21T02:45:51;7.40;;;4.70;;
69434;SDS011;56625;54.322;18.582;2022-08-21T02:48:22;8.40;;;4.70;;
69434;SDS011;56625;54.322;18.582;2022-08-21T02:50:58;7.80;;;5.00;;
69434;SDS011;56625;54.322;18.582;2022-08-21T02:53:30;8.60;;;5.10;;
69434;SDS011;56625;54.322;18.582;2022-08-21T02:56:00;9.20;;;5.00;;
69434;SDS011;56625;54.322;18.582;2022-08-21T02:58:34;8.40;;;5.00;;
69434;SDS011;56625;54.322;18.582;2022-08-21T03:01:06;8.40;;;4.90;;
69434;SDS011;56625;54.322;18.582;2022-08-21T03:03:39;8.30;;;5.10;;
69434;SDS011;56625;54.322;18.582;2022-08-21T03:06:11;7.90;;;4.70;;
69434;SDS011;56625;54.322;18.582;2022-08-21T03:08:42;9.50;;;5.20;;
69434;SDS011;56625;54.322;18.582;2022-08-21T03:11:13;8.20;;;4.90;;
69434;SDS011;56625;54.322;18.582;2022-08-21T03:13:42;9.40;;;5.30;;
69434;SDS011;56625;54.322;18.582;2022-08-21T03:16:10;9.30;;;5.20;;
69434;SDS011;56625;54.322;18.582;2022-08-21T03:18:38;8.70;;;5.00;;
69434;SDS011;56625;54.322;18.582;2022-08-21T03:21:06;8.90;;;4.90;;
69434;SDS011;56625;54.322;18.582;2022-08-21T03:23:34;11.30;;;5.30;;
69434;SDS011;56625;54.322;18.582;2022-08-21T03:26:03;8.70;;;5.30;;
69434;SDS011;56625;54.322;18.582;2022-08-21T03:28:31;10.10;;;5.30;;
69434;SDS011;56625;54.322;18.582;2022-08-21T03:31:00;8.90;;;5.10;;
69434;SDS011;56625;54.322;18.582;2022-08-21T03:33:27;8.80;;;5.30;;
69434;SDS011;56625;54.322;18.582;2022-08-21T03:36:01;9.20;;;5.40;;
69434;SDS011;56625;54.322;18.582;2022-08-21T03:38:35;10.20;;;5.90;;
69434;SDS011;56625;54.322;18.582;2022-08-21T03:41:05;9.10;;;5.30;;
69434;SDS011;56625;54.322;18.582;2022-08-21T03:43:34;9.70;;;5.20;;
69434;SDS011;56625;54.322;18.582;2022-08-21T03:46:04;10.10;;;5.50;;
69434;SDS011;56625;54.322;18.582;2022-08-21T03:48:35;9.80;;;5.50;;
69434;SDS011;56625;54.322;18.582;2022-08-21T03:51:05;9.50;;;5.60;;
69434;SDS011;56625;54.322;18.582;2022-08-21T03:53:34;9.90;;;5.60;;
69434;SDS011;56625;54.322;18.582;2022-08-21T03:56:02;8.90;;;5.20;;
69434;SDS011;56625;54.322;18.582;2022-08-21T03:58:31;9.80;;;5.30;;
69434;SDS011;56625;54.322;18.582;2022-08-21T04:01:00;9.40;;;5.20;;
69434;SDS011;56625;54.322;18.582;2022-08-21T04:03:28;9.20;;;5.60;;
69434;SDS011;56625;54.322;18.582;2022-08-21T04:05:56;10.50;;;5.60;;
69434;SDS011;56625;54.322;18.582;2022-08-21T04:08:24;9.40;;;5.50;;
69434;SDS011;56625;54.322;18.582;2022-08-21T04:10:55;9.40;;;5.50;;
69434;SDS011;56625;54.322;18.582;2022-08-21T04:13:26;9.70;;;5.10;;
69434;SDS011;56625;54.322;18.582;2022-08-21T04:15:56;9.20;;;5.60;;
69434;SDS011;56625;54.322;18.582;2022-08-21T04:18:26;10.30;;;5.90;;
69434;SDS011;56625;54.322;18.582;2022-08-21T04:20:56;9.70;;;5.10;;
69434;SDS011;56625;54.322;18.582;2022-08-21T04:23:26;9.70;;;5.30;;
69434;SDS011;56625;54.322;18.582;2022-08-21T04:25:55;9.00;;;5.20;;
69434;SDS011;56625;54.322;18.582;2022-08-21T04:28:26;9.80;;;5.40;;
69434;SDS011;56625;54.322;18.582;2022-08-21T04:30:57;9.80;;;5.80;;
69434;SDS011;56625;54.322;18.582;2022-08-21T04:33:25;10.10;;;5.60;;
69434;SDS011;56625;54.322;18.582;2022-08-21T04:35:53;9.40;;;5.50;;
69434;SDS011;56625;54.322;18.582;2022-08-21T04:38:21;10.50;;;5.60;;
69434;SDS011;56625;54.322;18.582;2022-08-21T04:40:50;9.10;;;4.90;;
69434;SDS011;56625;54.322;18.582;2022-08-21T04:43:19;9.00;;;5.30;;
69434;SDS011;56625;54.322;18.582;2022-08-21T04:45:51;10.00;;;5.20;;
69434;SDS011;56625;54.322;18.582;2022-08-21T04:48:21;10.30;;;5.40;;
69434;SDS011;56625;54.322;18.582;2022-08-21T04:54:07;11.10;;;5.90;;
69434;SDS011;56625;54.322;18.582;2022-08-21T04:56:41;10.30;;;5.90;;
69434;SDS011;56625;54.322;18.582;2022-08-21T04:59:19;12.30;;;6.10;;
69434;SDS011;56625;54.322;18.582;2022-08-21T05:01:51;10.60;;;5.70;;
69434;SDS011;56625;54.322;18.582;2022-08-21T05:04:22;12.50;;;6.50;;
69434;SDS011;56625;54.322;18.582;2022-08-21T05:06:57;10.40;;;5.30;;
69434;SDS011;56625;54.322;18.582;2022-08-21T05:09:28;11.70;;;6.10;;
69434;SDS011;56625;54.322;18.582;2022-08-21T05:11:56;11.10;;;5.90;;
69434;SDS011;56625;54.322;18.582;2022-08-21T05:14:25;10.00;;;5.60;;
69434;SDS011;56625;54.322;18.582;2022-08-21T05:16:54;10.10;;;5.40;;
69434;SDS011;56625;54.322;18.582;2022-08-21T05:19:22;11.60;;;6.20;;
69434;SDS011;56625;54.322;18.582;2022-08-21T05:21:51;11.60;;;6.30;;
69434;SDS011;56625;54.322;18.582;2022-08-21T05:24:19;8.90;;;5.30;;
69434;SDS011;56625;54.322;18.582;2022-08-21T05:26:47;10.10;;;5.90;;
69434;SDS011;56625;54.322;18.582;2022-08-21T05:29:16;10.20;;;5.40;;
69434;SDS011;56625;54.322;18.582;2022-08-21T05:31:46;11.60;;;5.50;;
69434;SDS011;56625;54.322;18.582;2022-08-21T05:34:18;9.70;;;5.90;;
69434;SDS011;56625;54.322;18.582;2022-08-21T05:36:49;10.80;;;5.60;;
69434;SDS011;56625;54.322;18.582;2022-08-21T05:39:17;9.40;;;5.70;;
69434;SDS011;56625;54.322;18.582;2022-08-21T05:41:45;9.40;;;5.20;;
69434;SDS011;56625;54.322;18.582;2022-08-21T05:44:13;8.80;;;4.60;;
69434;SDS011;56625;54.322;18.582;2022-08-21T05:46:41;8.90;;;5.00;;
69434;SDS011;56625;54.322;18.582;2022-08-21T05:49:10;9.30;;;5.00;;
69434;SDS011;56625;54.322;18.582;2022-08-21T05:51:40;9.50;;;5.20;;
69434;SDS011;56625;54.322;18.582;2022-08-21T05:54:09;8.20;;;4.50;;
69434;SDS011;56625;54.322;18.582;2022-08-21T05:56:38;8.40;;;4.10;;
69434;SDS011;56625;54.322;18.582;2022-08-21T05:59:06;7.90;;;4.00;;
69434;SDS011;56625;54.322;18.582;2022-08-21T06:01:36;7.00;;;3.30;;
69434;SDS011;56625;54.322;18.582;2022-08-21T06:04:04;7.60;;;3.60;;
69434;SDS011;56625;54.322;18.582;2022-08-21T06:06:33;6.90;;;3.80;;
69434;SDS011;56625;54.322;18.582;2022-08-21T06:09:03;6.50;;;3.70;;
69434;SDS011;56625;54.322;18.582;2022-08-21T06:11:32;6.80;;;3.40;;
69434;SDS011;56625;54.322;18.582;2022-08-21T06:14:01;6.80;;;3.20;;
69434;SDS011;56625;54.322;18.582;2022-08-21T06:16:29;6.00;;;3.20;;
69434;SDS011;56625;54.322;18.582;2022-08-21T06:18:57;6.60;;;3.40;;
69434;SDS011;56625;54.322;18.582;2022-08-21T06:21:29;6.50;;;3.30;;
69434;SDS011;56625;54.322;18.582;2022-08-21T06:23:57;6.90;;;3.50;;
69434;SDS011;56625;54.322;18.582;2022-08-21T06:26:25;8.20;;;3.80;;
69434;SDS011;56625;54.322;18.582;2022-08-21T06:28:53;7.20;;;3.60;;
69434;SDS011;56625;54.322;18.582;2022-08-21T06:31:23;7.20;;;3.80;;
69434;SDS011;56625;54.322;18.582;2022-08-21T06:33:54;7.20;;;3.60;;
69434;SDS011;56625;54.322;18.582;2022-08-21T06:36:22;6.30;;;3.50;;
69434;SDS011;56625;54.322;18.582;2022-08-21T06:38:51;6.80;;;3.70;;
69434;SDS011;56625;54.322;18.582;2022-08-21T06:41:19;6.80;;;3.50;;
69434;SDS011;56625;54.322;18.582;2022-08-21T06:43:54;6.50;;;3.70;;
69434;SDS011;56625;54.322;18.582;2022-08-21T06:46:24;6.40;;;3.50;;
69434;SDS011;56625;54.322;18.582;2022-08-21T06:48:54;7.10;;;3.50;;
69434;SDS011;56625;54.322;18.582;2022-08-21T06:51:23;6.00;;;3.10;;
69434;SDS011;56625;54.322;18.582;2022-08-21T06:53:54;6.90;;;3.70;;
69434;SDS011;56625;54.322;18.582;2022-08-21T06:56:22;6.20;;;3.00;;
69434;SDS011;56625;54.322;18.582;2022-08-21T06:58:50;6.30;;;3.10;;
69434;SDS011;56625;54.322;18.582;2022-08-21T07:01:21;7.00;;;3.20;;
69434;SDS011;56625;54.322;18.582;2022-08-21T07:03:53;6.30;;;2.90;;
69434;SDS011;56625;54.322;18.582;2022-08-21T07:06:20;6.70;;;2.80;;
69434;SDS011;56625;54.322;18.582;2022-08-21T07:08:48;6.90;;;2.90;;
69434;SDS011;56625;54.322;18.582;2022-08-21T07:11:24;5.50;;;2.50;;
69434;SDS011;56625;54.322;18.582;2022-08-21T07:13:53;5.80;;;2.50;;
69434;SDS011;56625;54.322;18.582;2022-08-21T07:16:22;6.40;;;2.90;;
69434;SDS011;56625;54.322;18.582;2022-08-21T07:18:51;5.50;;;2.90;;
69434;SDS011;56625;54.322;18.582;2022-08-21T07:21:19;6.90;;;3.20;;
69434;SDS011;56625;54.322;18.582;2022-08-21T07:23:53;6.30;;;3.00;;
69434;SDS011;56625;54.322;18.582;2022-08-21T07:29:06;6.70;;;3.20;;
69434;SDS011;56625;54.322;18.582;2022-08-21T07:31:35;7.00;;;2.80;;
69434;SDS011;56625;54.322;18.582;2022-08-21T07:34:04;6.00;;;3.20;;
69434;SDS011;56625;54.322;18.582;2022-08-21T07:36:32;5.70;;;2.70;;
69434;SDS011;56625;54.322;18.582;2022-08-21T07:39:09;7.10;;;3.40;;
69434;SDS011;56625;54.322;18.582;2022-08-21T07:41:56;6.70;;;2.70;;
69434;SDS011;56625;54.322;18.582;2022-08-21T07:44:25;6.10;;;3.00;;
69434;SDS011;56625;54.322;18.582;2022-08-21T07:47:07;6.60;;;3.20;;
69434;SDS011;56625;54.322;18.582;2022-08-21T07:49:39;7.10;;;3.10;;
69434;SDS011;56625;54.322;18.582;2022-08-21T07:52:07;6.90;;;3.40;;
69434;SDS011;56625;54.322;18.582;2022-08-21T07:54:35;6.30;;;2.80;;
69434;SDS011;56625;54.322;18.582;2022-08-21T07:57:04;7.90;;;3.50;;
69434;SDS011;56625;54.322;18.582;2022-08-21T07:59:32;6.40;;;3.00;;
69434;SDS011;56625;54.322;18.582;2022-08-21T08:02:00;7.70;;;3.50;;
69434;SDS011;56625;54.322;18.582;2022-08-21T08:04:32;7.00;;;3.10;;
69434;SDS011;56625;54.322;18.582;2022-08-21T08:07:09;6.60;;;3.10;;
69434;SDS011;56625;54.322;18.582;2022-08-21T08:09:51;8.80;;;3.70;;
69434;SDS011;56625;54.322;18.582;2022-08-21T08:12:42;7.10;;;3.20;;
69434;SDS011;56625;54.322;18.582;2022-08-21T08:15:24;6.10;;;2.70;;
69434;SDS011;56625;54.322;18.582;2022-08-21T08:18:08;6.00;;;2.70;;
69434;SDS011;56625;54.322;18.582;2022-08-21T08:21:20;7.40;;;3.20;;
69434;SDS011;56625;54.322;18.582;2022-08-21T08:24:38;6.20;;;3.10;;
69434;SDS011;56625;54.322;18.582;2022-08-21T08:27:31;6.80;;;2.90;;
69434;SDS011;56625;54.322;18.582;2022-08-21T08:30:25;6.70;;;2.60;;
69434;SDS011;56625;54.322;18.582;2022-08-21T08:33:45;6.10;;;2.60;;
69434;SDS011;56625;54.322;18.582;2022-08-21T08:37:35;6.20;;;3.10;;
69434;SDS011;56625;54.322;18.582;2022-08-21T08:41:19;7.50;;;3.20;;
69434;SDS011;56625;54.322;18.582;2022-08-21T08:44:03;6.20;;;2.90;;
69434;SDS011;56625;54.322;18.582;2022-08-21T08:46:44;7.00;;;2.90;;
69434;SDS011;56625;54.322;18.582;2022-08-21T08:49:24;6.00;;;2.50;;
69434;SDS011;56625;54.322;18.582;2022-08-21T08:52:03;6.80;;;2.80;;
69434;SDS011;56625;54.322;18.582;2022-08-21T08:54:44;6.70;;;2.60;;
69434;SDS011;56625;54.322;18.582;2022-08-21T08:57:19;7.10;;;2.80;;
69434;SDS011;56625;54.322;18.582;2022-08-21T08:59:53;6.20;;;2.50;;
69434;SDS011;56625;54.322;18.582;2022-08-21T09:02:26;6.20;;;2.30;;
69434;SDS011;56625;54.322;18.582;2022-08-21T09:05:05;6.10;;;2.30;;
69434;SDS011;56625;54.322;18.582;2022-08-21T09:11:02;5.30;;;2.30;;
69434;SDS011;56625;54.322;18.582;2022-08-21T09:16:47;6.70;;;2.40;;
69434;SDS011;56625;54.322;18.582;2022-08-21T09:22:48;8.20;;;2.50;;
69434;SDS011;56625;54.322;18.582;2022-08-21T09:25:59;6.10;;;2.50;;
69434;SDS011;56625;54.322;18.582;2022-08-21T09:28:35;6.10;;;2.60;;
69434;SDS011;56625;54.322;18.582;2022-08-21T09:31:11;8.00;;;2.60;;
69434;SDS011;56625;54.322;18.582;2022-08-21T09:34:01;5.90;;;2.60;;
69434;SDS011;56625;54.322;18.582;2022-08-21T09:36:37;6.30;;;2.40;;
69434;SDS011;56625;54.322;18.582;2022-08-21T09:39:11;5.80;;;2.60;;
69434;SDS011;56625;54.322;18.582;2022-08-21T09:41:41;5.90;;;2.40;;
69434;SDS011;56625;54.322;18.582;2022-08-21T09:44:09;5.60;;;2.20;;
69434;SDS011;56625;54.322;18.582;2022-08-21T09:46:37;7.30;;;2.80;;
69434;SDS011;56625;54.322;18.582;2022-08-21T09:49:06;6.00;;;2.40;;
69434;SDS011;56625;54.322;18.582;2022-08-21T09:51:51;6.80;;;2.50;;
69434;SDS011;56625;54.322;18.582;2022-08-21T09:54:27;6.60;;;2.70;;
69434;SDS011;56625;54.322;18.582;2022-08-21T09:59:55;5.40;;;2.10;;
69434;SDS011;56625;54.322;18.582;2022-08-21T10:02:33;5.00;;;2.30;;
69434;SDS011;56625;54.322;18.582;2022-08-21T10:05:24;6.10;;;2.20;;
69434;SDS011;56625;54.322;18.582;2022-08-21T10:07:55;5.90;;;2.40;;
69434;SDS011;56625;54.322;18.582;2022-08-21T10:10:29;5.90;;;2.30;;
69434;SDS011;56625;54.322;18.582;2022-08-21T10:13:08;6.40;;;2.40;;
69434;SDS011;56625;54.322;18.582;2022-08-21T10:16:07;6.40;;;2.30;;
69434;SDS011;56625;54.322;18.582;2022-08-21T10:19:26;6.90;;;2.10;;
69434;SDS011;56625;54.322;18.582;2022-08-21T10:22:15;6.10;;;1.90;;
69434;SDS011;56625;54.322;18.582;2022-08-21T10:25:22;6.30;;;2.30;;
69434;SDS011;56625;54.322;18.582;2022-08-21T10:30:50;6.40;;;2.20;;
69434;SDS011;56625;54.322;18.582;2022-08-21T10:33:33;5.70;;;2.10;;
69434;SDS011;56625;54.322;18.582;2022-08-21T10:42:14;7.50;;;1.80;;
69434;SDS011;56625;54.322;18.582;2022-08-21T10:45:11;5.20;;;1.90;;
69434;SDS011;56625;54.322;18.582;2022-08-21T10:47:59;6.00;;;2.10;;
69434;SDS011;56625;54.322;18.582;2022-08-21T10:50:47;9.00;;;2.30;;
69434;SDS011;56625;54.322;18.582;2022-08-21T10:53:34;6.60;;;2.20;;
69434;SDS011;56625;54.322;18.582;2022-08-21T10:56:14;5.60;;;1.80;;
69434;SDS011;56625;54.322;18.582;2022-08-21T10:59:00;7.20;;;2.40;;
69434;SDS011;56625;54.322;18.582;2022-08-21T11:01:47;4.90;;;1.70;;
69434;SDS011;56625;54.322;18.582;2022-08-21T11:04:26;6.90;;;2.30;;
69434;SDS011;56625;54.322;18.582;2022-08-21T11:10:33;6.10;;;1.70;;
69434;SDS011;56625;54.322;18.582;2022-08-21T11:13:43;4.70;;;1.50;;
69434;SDS011;56625;54.322;18.582;2022-08-21T11:16:45;6.20;;;2.10;;
69434;SDS011;56625;54.322;18.582;2022-08-21T11:19:50;4.40;;;1.60;;
69434;SDS011;56625;54.322;18.582;2022-08-21T11:22:49;4.60;;;1.80;;
69434;SDS011;56625;54.322;18.582;2022-08-21T11:25:35;4.80;;;1.70;;
69434;SDS011;56625;54.322;18.582;2022-08-21T11:28:45;4.80;;;1.60;;
69434;SDS011;56625;54.322;18.582;2022-08-21T11:31:43;5.10;;;1.70;;
69434;SDS011;56625;54.322;18.582;2022-08-21T11:34:36;5.80;;;1.70;;
69434;SDS011;56625;54.322;18.582;2022-08-21T11:44:17;5.10;;;1.80;;
69434;SDS011;56625;54.322;18.582;2022-08-21T11:49:52;4.30;;;1.60;;
69434;SDS011;56625;54.322;18.582;2022-08-21T11:52:34;7.50;;;2.00;;
69434;SDS011;56625;54.322;18.582;2022-08-21T11:55:18;5.50;;;1.60;;
69434;SDS011;56625;54.322;18.582;2022-08-21T11:57:58;5.60;;;1.90;;
69434;SDS011;56625;54.322;18.582;2022-08-21T12:00:53;5.80;;;1.60;;
69434;SDS011;56625;54.322;18.582;2022-08-21T12:06:10;5.40;;;1.80;;
69434;SDS011;56625;54.322;18.582;2022-08-21T12:08:59;5.30;;;1.30;;
69434;SDS011;56625;54.322;18.582;2022-08-21T12:11:29;5.10;;;1.30;;
69434;SDS011;56625;54.322;18.582;2022-08-21T12:14:00;4.80;;;1.40;;
69434;SDS011;56625;54.322;18.582;2022-08-21T12:16:46;4.60;;;1.40;;
69434;SDS011;56625;54.322;18.582;2022-08-21T12:21:51;5.10;;;1.10;;
69434;SDS011;56625;54.322;18.582;2022-08-21T12:24:37;4.20;;;1.20;;
69434;SDS011;56625;54.322;18.582;2022-08-21T12:27:47;5.10;;;1.30;;
69434;SDS011;56625;54.322;18.582;2022-08-21T12:30:33;4.20;;;1.10;;
69434;SDS011;56625;54.322;18.582;2022-08-21T12:33:17;5.00;;;1.10;;
69434;SDS011;56625;54.322;18.582;2022-08-21T12:35:50;3.90;;;1.00;;
69434;SDS011;56625;54.322;18.582;2022-08-21T12:38:28;4.20;;;1.00;;
69434;SDS011;56625;54.322;18.582;2022-08-21T12:41:11;5.40;;;1.30;;
69434;SDS011;56625;54.322;18.582;2022-08-21T12:43:51;5.80;;;1.20;;
69434;SDS011;56625;54.322;18.582;2022-08-21T12:46:35;5.80;;;1.40;;
69434;SDS011;56625;54.322;18.582;2022-08-21T12:49:19;6.00;;;1.10;;
69434;SDS011;56625;54.322;18.582;2022-08-21T12:54:40;5.60;;;1.30;;
69434;SDS011;56625;54.322;18.582;2022-08-21T12:57:39;5.40;;;1.10;;
69434;SDS011;56625;54.322;18.582;2022-08-21T13:00:12;6.30;;;1.30;;
69434;SDS011;56625;54.322;18.582;2022-08-21T13:02:46;5.80;;;1.20;;
69434;SDS011;56625;54.322;18.582;2022-08-21T13:07:58;5.50;;;1.20;;
69434;SDS011;56625;54.322;18.582;2022-08-21T13:10:33;5.30;;;1.40;;
69434;SDS011;56625;54.322;18.582;2022-08-21T13:13:06;5.00;;;1.00;;
69434;SDS011;56625;54.322;18.582;2022-08-21T13:15:42;3.40;;;1.10;;
69434;SDS011;56625;54.322;18.582;2022-08-21T13:18:27;5.20;;;1.20;;
69434;SDS011;56625;54.322;18.582;2022-08-21T13:21:06;4.80;;;1.10;;
69434;SDS011;56625;54.322;18.582;2022-08-21T13:23:41;4.70;;;1.00;;
69434;SDS011;56625;54.322;18.582;2022-08-21T13:26:17;4.10;;;1.00;;
69434;SDS011;56625;54.322;18.582;2022-08-21T13:28:49;2.90;;;0.80;;
69434;SDS011;56625;54.322;18.582;2022-08-21T13:31:25;5.00;;;1.10;;
69434;SDS011;56625;54.322;18.582;2022-08-21T13:33:55;5.20;;;1.10;;
69434;SDS011;56625;54.322;18.582;2022-08-21T13:36:29;4.60;;;0.80;;
69434;SDS011;56625;54.322;18.582;2022-08-21T13:39:08;3.50;;;0.80;;
69434;SDS011;56625;54.322;18.582;2022-08-21T13:41:41;3.60;;;1.00;;
69434;SDS011;56625;54.322;18.582;2022-08-21T13:44:20;4.00;;;1.00;;
69434;SDS011;56625;54.322;18.582;2022-08-21T13:46:53;4.20;;;0.90;;
69434;SDS011;56625;54.322;18.582;2022-08-21T13:49:32;5.10;;;1.10;;
69434;SDS011;56625;54.322;18.582;2022-08-21T13:52:05;4.70;;;0.90;;
69434;SDS011;56625;54.322;18.582;2022-08-21T13:54:55;5.50;;;0.90;;
69434;SDS011;56625;54.322;18.582;2022-08-21T13:57:28;3.50;;;0.90;;
69434;SDS011;56625;54.322;18.582;2022-08-21T14:00:27;3.60;;;0.80;;
69434;SDS011;56625;54.322;18.582;2022-08-21T14:03:09;3.70;;;0.70;;
69434;SDS011;56625;54.322;18.582;2022-08-21T14:05:45;4.70;;;1.00;;
69434;SDS011;56625;54.322;18.582;2022-08-21T14:08:36;4.40;;;1.00;;
69434;SDS011;56625;54.322;18.582;2022-08-21T14:11:11;4.50;;;1.10;;
69434;SDS011;56625;54.322;18.582;2022-08-21T14:14:00;4.10;;;0.90;;
69434;SDS011;56625;54.322;18.582;2022-08-21T14:16:52;5.70;;;1.00;;
69434;SDS011;56625;54.322;18.582;2022-08-21T14:19:38;4.20;;;1.00;;
69434;SDS011;56625;54.322;18.582;2022-08-21T14:22:38;3.60;;;0.90;;
69434;SDS011;56625;54.322;18.582;2022-08-21T14:25:36;4.60;;;0.80;;
69434;SDS011;56625;54.322;18.582;2022-08-21T14:28:18;5.20;;;1.30;;
69434;SDS011;56625;54.322;18.582;2022-08-21T14:30:55;5.00;;;0.90;;
69434;SDS011;56625;54.322;18.582;2022-08-21T14:33:31;8.10;;;1.70;;
69434;SDS011;56625;54.322;18.582;2022-08-21T14:36:00;5.30;;;1.10;;
69434;SDS011;56625;54.322;18.582;2022-08-21T14:38:30;5.90;;;1.30;;
69434;SDS011;56625;54.322;18.582;2022-08-21T14:41:02;5.00;;;1.20;;
69434;SDS011;56625;54.322;18.582;2022-08-21T14:43:47;6.10;;;1.30;;
69434;SDS011;56625;54.322;18.582;2022-08-21T14:46:31;7.10;;;1.30;;
69434;SDS011;56625;54.322;18.582;2022-08-21T14:49:05;5.60;;;1.10;;
69434;SDS011;56625;54.322;18.582;2022-08-21T14:51:33;5.70;;;1.20;;
69434;SDS011;56625;54.322;18.582;2022-08-21T14:54:02;4.50;;;1.10;;
69434;SDS011;56625;54.322;18.582;2022-08-21T14:56:30;5.70;;;1.30;;
69434;SDS011;56625;54.322;18.582;2022-08-21T14:59:03;3.90;;;1.00;;
69434;SDS011;56625;54.322;18.582;2022-08-21T15:01:36;4.30;;;1.00;;
69434;SDS011;56625;54.322;18.582;2022-08-21T15:04:06;3.10;;;0.80;;
69434;SDS011;56625;54.322;18.582;2022-08-21T15:06:34;4.60;;;1.00;;
69434;SDS011;56625;54.322;18.582;2022-08-21T15:09:02;4.00;;;0.70;;
69434;SDS011;56625;54.322;18.582;2022-08-21T15:11:33;3.70;;;0.80;;
69434;SDS011;56625;54.322;18.582;2022-08-21T15:14:13;4.40;;;0.70;;
69434;SDS011;56625;54.322;18.582;2022-08-21T15:16:48;3.90;;;0.80;;
69434;SDS011;56625;54.322;18.582;2022-08-21T15:19:18;5.30;;;1.30;;
69434;SDS011;56625;54.322;18.582;2022-08-21T15:21:47;3.40;;;0.80;;
69434;SDS011;56625;54.322;18.582;2022-08-21T15:24:16;5.90;;;0.80;;
69434;SDS011;56625;54.322;18.582;2022-08-21T15:26:44;6.00;;;1.20;;
69434;SDS011;56625;54.322;18.582;2022-08-21T15:29:13;3.20;;;0.80;;
69434;SDS011;56625;54.322;18.582;2022-08-21T15:32:02;4.20;;;1.10;;
69434;SDS011;56625;54.322;18.582;2022-08-21T15:34:43;4.90;;;1.00;;
69434;SDS011;56625;54.322;18.582;2022-08-21T15:37:12;4.80;;;1.10;;
69434;SDS011;56625;54.322;18.582;2022-08-21T15:39:40;5.20;;;1.10;;
69434;SDS011;56625;54.322;18.582;2022-08-21T15:42:09;6.80;;;0.90;;
69434;SDS011;56625;54.322;18.582;2022-08-21T15:44:40;5.30;;;1.10;;
69434;SDS011;56625;54.322;18.582;2022-08-21T15:47:19;5.90;;;1.10;;
69434;SDS011;56625;54.322;18.582;2022-08-21T15:49:49;4.10;;;1.10;;
69434;SDS011;56625;54.322;18.582;2022-08-21T15:52:20;6.40;;;1.50;;
69434;SDS011;56625;54.322;18.582;2022-08-21T15:54:50;5.00;;;1.20;;
69434;SDS011;56625;54.322;18.582;2022-08-21T15:57:21;7.70;;;1.10;;
69434;SDS011;56625;54.322;18.582;2022-08-21T15:59:59;4.60;;;1.00;;
69434;SDS011;56625;54.322;18.582;2022-08-21T16:02:42;5.40;;;1.20;;
69434;SDS011;56625;54.322;18.582;2022-08-21T16:05:14;7.00;;;1.30;;
69434;SDS011;56625;54.322;18.582;2022-08-21T16:07:46;4.60;;;1.00;;
69434;SDS011;56625;54.322;18.582;2022-08-21T16:10:18;5.10;;;1.10;;
69434;SDS011;56625;54.322;18.582;2022-08-21T16:12:54;4.80;;;1.10;;
69434;SDS011;56625;54.322;18.582;2022-08-21T16:15:26;6.30;;;1.20;;